createdAt,value
2023-04-24T00:00:06.433Z,99920.31
2023-04-24T00:02:35.318Z,99927.34
2023-04-24T00:05:03.970Z,99929.09
2023-04-24T00:07:33.484Z,99929.00
2023-04-24T00:10:01.511Z,99923.69
2023-04-24T00:12:29.415Z,99916.44
2023-04-24T00:14:57.310Z,99898.47
2023-04-24T00:17:25.292Z,99903.16
2023-04-24T00:19:59.300Z,99906.28
2023-04-24T00:22:27.542Z,99902.19
2023-04-24T00:24:57.268Z,99905.53
2023-04-24T00:27:25.326Z,99905.03
2023-04-24T00:29:53.529Z,99897.22
2023-04-24T00:32:21.488Z,99891.06
2023-04-24T00:34:49.466Z,99893.28
2023-04-24T00:37:17.553Z,99888.84
2023-04-24T00:39:45.660Z,99886.31
2023-04-24T00:42:15.190Z,99893.88
2023-04-24T00:44:43.286Z,99890.50
2023-04-24T00:47:11.745Z,99882.69
2023-04-24T00:49:39.628Z,99879.88
2023-04-24T00:52:09.937Z,99888.28
2023-04-24T00:54:37.931Z,99882.97
2023-04-24T00:57:06.222Z,99879.59
2023-04-24T00:59:35.515Z,99876.53
2023-04-24T01:02:03.456Z,99874.31
2023-04-24T01:04:31.548Z,99872.06
2023-04-24T01:06:59.648Z,99875.97
2023-04-24T01:09:27.604Z,99869.25
2023-04-24T01:11:55.547Z,99874.00
2023-04-24T01:14:23.524Z,99877.66
2023-04-24T01:16:52.794Z,99868.13
2023-04-24T01:19:21.310Z,99872.06
2023-04-24T01:21:49.820Z,99872.88
2023-04-24T01:24:20.015Z,99875.97
2023-04-24T01:26:48.111Z,99871.22
2023-04-24T01:29:16.096Z,99870.38
2023-04-24T01:31:44.188Z,99864.53
2023-04-24T01:34:12.520Z,99868.13
2023-04-24T01:36:40.499Z,99859.78
2023-04-24T01:39:08.641Z,99862.00
2023-04-24T01:41:38.050Z,99865.66
2023-04-24T01:44:06.082Z,99853.63
2023-04-24T01:46:35.745Z,99850.81
2023-04-24T01:49:04.205Z,99861.72
2023-04-24T01:51:32.679Z,99856.97
2023-04-24T01:54:00.594Z,99858.66
2023-04-24T01:56:31.612Z,99851.38
2023-04-24T01:59:01.986Z,99847.19
2023-04-24T02:01:29.884Z,99849.41
2023-04-24T02:03:57.862Z,99849.13
2023-04-24T02:06:25.829Z,99849.13
2023-04-24T02:08:53.778Z,99855.28
2023-04-24T02:11:21.683Z,99851.38
2023-04-24T02:13:49.613Z,99845.78
2023-04-24T02:16:19.031Z,99837.38
2023-04-24T02:18:47.116Z,99836.81
2023-04-24T02:21:15.053Z,99841.31
2023-04-24T02:23:42.977Z,99834.88
2023-04-24T02:26:11.356Z,99839.06
2023-04-24T02:28:39.281Z,99838.47
2023-04-24T02:31:07.420Z,99835.69
2023-04-24T02:33:36.786Z,99846.03
2023-04-24T02:36:05.031Z,99840.69
2023-04-24T02:38:32.927Z,99850.22
2023-04-24T02:41:01.788Z,99843.50
2023-04-24T02:43:29.703Z,99839.59
2023-04-24T02:45:57.679Z,99836.25
2023-04-24T02:48:25.763Z,99833.44
2023-04-24T02:50:55.156Z,99833.97
2023-04-24T02:53:23.809Z,99838.72
2023-04-24T02:55:51.729Z,99833.94
2023-04-24T02:58:21.084Z,99832.56
2023-04-24T03:00:49.156Z,99839.00
2023-04-24T03:03:17.251Z,99832.28
2023-04-24T03:05:45.670Z,99835.34
2023-04-24T03:08:15.553Z,99834.50
2023-04-24T03:10:43.485Z,99827.50
2023-04-24T03:13:11.372Z,99834.22
2023-04-24T03:15:39.281Z,99836.72
2023-04-24T03:18:07.303Z,99835.28
2023-04-24T03:20:35.260Z,99835.00
2023-04-24T03:23:03.302Z,99826.88
2023-04-24T03:25:32.556Z,99834.97
2023-04-24T03:28:00.520Z,99827.72
2023-04-24T03:30:28.437Z,99834.41
2023-04-24T03:32:56.722Z,99826.00
2023-04-24T03:35:25.037Z,99829.38
2023-04-24T03:37:52.982Z,99833.56
2023-04-24T03:40:20.949Z,99836.91
2023-04-24T03:42:50.256Z,99843.06
2023-04-24T03:45:18.163Z,99835.56
2023-04-24T03:47:46.132Z,99833.59
2023-04-24T03:50:14.138Z,99824.97
2023-04-24T03:52:42.033Z,99831.69
2023-04-24T03:55:13.995Z,99827.22
2023-04-24T03:57:42.335Z,99826.69
2023-04-24T04:00:13.332Z,99820.28
2023-04-24T04:02:41.366Z,99821.97
2023-04-24T04:05:10.489Z,99821.69
2023-04-24T04:07:38.471Z,99817.50
2023-04-24T04:10:08.044Z,99816.69
2023-04-24T04:12:35.932Z,99816.69
2023-04-24T04:15:05.707Z,99819.47
2023-04-24T04:17:35.111Z,99822.56
2023-04-24T04:20:06.704Z,99821.44
2023-04-24T04:22:34.625Z,99827.03
2023-04-24T04:25:02.538Z,99820.06
2023-04-24T04:27:33.128Z,99823.44
2023-04-24T04:30:02.471Z,99823.72
2023-04-24T04:32:30.400Z,99823.41
2023-04-24T04:34:59.753Z,99834.03
2023-04-24T04:37:27.657Z,99828.72
2023-04-24T04:39:55.697Z,99835.16
2023-04-24T04:42:24.738Z,99831.22
2023-04-24T04:44:52.700Z,99844.66
2023-04-24T04:47:20.996Z,99831.50
2023-04-24T04:49:49.170Z,99843.53
2023-04-24T04:52:18.846Z,99850.22
2023-04-24T04:54:47.304Z,99846.34
2023-04-24T04:57:15.280Z,99849.13
2023-04-24T04:59:43.449Z,99851.94
2023-04-24T05:02:11.715Z,99845.78
2023-04-24T05:04:39.817Z,99844.69
2023-04-24T05:07:07.916Z,99840.47
2023-04-24T05:09:37.209Z,99845.22
2023-04-24T05:12:05.555Z,99848.00
2023-04-24T05:14:33.482Z,99839.91
2023-04-24T05:17:02.001Z,99835.19
2023-04-24T05:19:29.957Z,99834.03
2023-04-24T05:21:57.894Z,99844.66
2023-04-24T05:24:25.820Z,99842.41
2023-04-24T05:26:55.107Z,99840.19
2023-04-24T05:29:23.006Z,99825.09
2023-04-24T05:31:51.092Z,99841.31
2023-04-24T05:34:19.200Z,99844.66
2023-04-24T05:36:47.303Z,99846.34
2023-04-24T05:39:15.995Z,99839.94
2023-04-24T05:41:43.924Z,99841.88
2023-04-24T05:44:13.214Z,99831.53
2023-04-24T05:46:41.206Z,99830.94
2023-04-24T05:49:09.136Z,99826.78
2023-04-24T05:51:37.029Z,99834.91
2023-04-24T05:54:05.095Z,99839.66
2023-04-24T05:56:33.278Z,99837.97
2023-04-24T05:59:01.276Z,99841.31
2023-04-24T06:01:30.730Z,99841.84
2023-04-24T06:03:58.699Z,99838.50
2023-04-24T06:06:28.234Z,99831.22
2023-04-24T06:08:56.666Z,99841.28
2023-04-24T06:11:25.906Z,99835.09
2023-04-24T06:13:54.170Z,99846.28
2023-04-24T06:16:22.213Z,99842.63
2023-04-24T06:18:51.544Z,99834.50
2023-04-24T06:21:19.579Z,99843.72
2023-04-24T06:23:50.158Z,99849.31
2023-04-24T06:26:18.363Z,99838.38
2023-04-24T06:28:46.243Z,99851.28
2023-04-24T06:31:14.125Z,99854.06
2023-04-24T06:33:45.169Z,99854.63
2023-04-24T06:36:14.510Z,99859.44
2023-04-24T06:38:42.451Z,99859.16
2023-04-24T06:41:11.707Z,99864.19
2023-04-24T06:43:39.616Z,99867.50
2023-04-24T06:46:07.623Z,99872.53
2023-04-24T06:48:35.584Z,99869.22
2023-04-24T06:51:03.523Z,99864.72
2023-04-24T06:53:32.862Z,99866.97
2023-04-24T06:56:00.833Z,99865.25
2023-04-24T06:58:28.755Z,99858.78
2023-04-24T07:00:56.670Z,99871.38
2023-04-24T07:03:24.782Z,99861.00
2023-04-24T07:05:54.346Z,99862.53
2023-04-24T07:08:23.120Z,99868.25
2023-04-24T07:10:52.884Z,99858.78
2023-04-24T07:13:20.997Z,99865.97
2023-04-24T07:15:51.464Z,99860.16
2023-04-24T07:18:19.684Z,99869.88
2023-04-24T07:20:47.735Z,99865.34
2023-04-24T07:23:15.707Z,99871.13
2023-04-24T07:25:43.791Z,99870.13
2023-04-24T07:28:13.163Z,99876.22
2023-04-24T07:30:41.113Z,99866.38
2023-04-24T07:33:09.119Z,99868.41
2023-04-24T07:35:37.152Z,99877.44
2023-04-24T07:38:05.076Z,99869.66
2023-04-24T07:40:33.022Z,99882.00
2023-04-24T07:43:01.412Z,99883.03
2023-04-24T07:45:32.177Z,99884.94
2023-04-24T07:48:00.165Z,99887.53
2023-04-24T07:50:28.185Z,99886.19
2023-04-24T07:52:56.059Z,99890.84
2023-04-24T07:55:26.462Z,99898.34
2023-04-24T07:57:56.059Z,99911.03
2023-04-24T08:00:24.031Z,99914.13
2023-04-24T08:02:53.446Z,99914.41
2023-04-24T08:05:21.706Z,99910.97
2023-04-24T08:07:51.429Z,99909.28
2023-04-24T08:10:19.398Z,99916.28
2023-04-24T08:12:47.337Z,99921.88
2023-04-24T08:15:15.289Z,99921.44
2023-04-24T08:17:43.476Z,99924.25
2023-04-24T08:20:14.729Z,99931.22
2023-04-24T08:22:42.835Z,99926.75
2023-04-24T08:25:11.213Z,99931.22
2023-04-24T08:27:39.971Z,99930.66
2023-04-24T08:30:09.139Z,99928.75
2023-04-24T08:32:37.122Z,99930.13
2023-04-24T08:35:05.675Z,99930.63
2023-04-24T08:37:34.995Z,99935.13
2023-04-24T08:40:03.384Z,99935.16
2023-04-24T08:42:34.310Z,99934.28
2023-04-24T08:45:03.528Z,99942.41
2023-04-24T08:47:32.335Z,99936.81
2023-04-24T08:50:03.840Z,99941.34
2023-04-24T08:52:32.341Z,99943.88
2023-04-24T08:55:02.229Z,99938.84
2023-04-24T08:57:30.776Z,99938.50
2023-04-24T08:59:58.943Z,99939.31
2023-04-24T09:02:27.610Z,99935.09
2023-04-24T09:04:55.833Z,99937.31
2023-04-24T09:07:24.737Z,99935.72
2023-04-24T09:09:53.107Z,99944.66
2023-04-24T09:12:23.148Z,99948.63
2023-04-24T09:14:51.964Z,99950.53
2023-04-24T09:17:19.978Z,99957.22
2023-04-24T09:19:47.876Z,99951.94
2023-04-24T09:22:16.504Z,99963.19
2023-04-24T09:24:44.476Z,99968.25
2023-04-24T09:27:14.177Z,99965.72
2023-04-24T09:29:55.817Z,99964.31
2023-04-24T09:32:26.799Z,99971.88
2023-04-24T09:35:08.508Z,99972.16
2023-04-24T09:37:38.206Z,99976.00
2023-04-24T09:40:17.042Z,99972.09
2023-04-24T09:42:48.825Z,99966.38
2023-04-24T09:45:18.836Z,99970.34
2023-04-24T09:47:46.810Z,99965.28
2023-04-24T09:50:16.444Z,99962.38
2023-04-24T09:52:46.390Z,99966.59
2023-04-24T09:55:21.269Z,99961.81
2023-04-24T09:57:51.351Z,99963.94
2023-04-24T10:00:27.182Z,99964.44
2023-04-24T10:02:59.778Z,99963.13
2023-04-24T10:05:30.585Z,99973.16
2023-04-24T10:07:59.758Z,99972.28
2023-04-24T10:10:28.224Z,99974.13
2023-04-24T10:12:57.104Z,99970.72
2023-04-24T10:15:26.592Z,99970.59
2023-04-24T10:17:54.782Z,99975.81
2023-04-24T10:20:23.665Z,99969.38
2023-04-24T10:22:53.217Z,99962.94
2023-04-24T10:25:22.863Z,99964.91
2023-04-24T10:27:51.848Z,99973.97
2023-04-24T10:30:20.631Z,99984.69
2023-04-24T10:32:50.016Z,99986.13
2023-04-24T10:35:20.629Z,99991.16
2023-04-24T10:37:51.369Z,99986.69
2023-04-24T10:40:20.680Z,99985.00
2023-04-24T10:42:57.475Z,99989.22
2023-04-24T10:45:26.997Z,99989.16
2023-04-24T10:48:05.830Z,99992.00
2023-04-24T10:50:45.816Z,99983.31
2023-04-24T10:53:19.122Z,99984.38
2023-04-24T10:55:51.388Z,99983.81
2023-04-24T10:58:24.396Z,99993.34
2023-04-24T11:00:59.259Z,99998.34
2023-04-24T11:03:31.211Z,99997.28
2023-04-24T11:06:01.678Z,99994.25
2023-04-24T11:08:39.802Z,100002.38
2023-04-24T11:11:12.254Z,99993.66
2023-04-24T11:14:07.386Z,100007.81
2023-04-24T11:16:37.150Z,99991.63
2023-04-24T11:19:09.454Z,99990.53
2023-04-24T11:21:45.005Z,99999.41
2023-04-24T11:24:33.852Z,99991.06
2023-04-24T11:27:08.917Z,99986.88
2023-04-24T11:29:44.997Z,99994.50
2023-04-24T11:32:21.397Z,100000.06
2023-04-24T11:34:54.429Z,99998.69
2023-04-24T11:37:22.938Z,99995.34
2023-04-24T11:39:53.788Z,100001.78
2023-04-24T11:42:22.724Z,100005.09
2023-04-24T11:44:51.669Z,100001.44
2023-04-24T11:47:20.247Z,100006.22
2023-04-24T11:49:48.304Z,100004.78
2023-04-24T11:52:19.414Z,100001.94
2023-04-24T11:54:50.954Z,100011.16
2023-04-24T11:57:20.469Z,99996.34
2023-04-24T11:59:50.429Z,100012.31
2023-04-24T12:02:25.549Z,100019.38
2023-04-24T12:04:54.598Z,100013.50
2023-04-24T12:07:25.433Z,100018.19
2023-04-24T12:09:59.401Z,100013.25
2023-04-24T12:12:28.710Z,100018.59
2023-04-24T12:14:57.788Z,100025.56
2023-04-24T12:17:29.163Z,100027.50
2023-04-24T12:20:01.194Z,100017.97
2023-04-24T12:22:30.996Z,100020.19
2023-04-24T12:25:02.804Z,100028.59
2023-04-24T12:27:35.125Z,100019.09
2023-04-24T12:30:05.453Z,100033.63
2023-04-24T12:32:33.835Z,100036.19
2023-04-24T12:35:01.815Z,100033.44
2023-04-24T12:37:37.413Z,100043.22
2023-04-24T12:40:08.151Z,100046.25
2023-04-24T12:42:37.011Z,100044.28
2023-04-24T12:45:06.583Z,100049.91
2023-04-24T12:47:35.056Z,100054.53
2023-04-24T12:50:03.598Z,100050.91
2023-04-24T12:52:32.929Z,100051.16
2023-04-24T12:55:02.328Z,100053.72
2023-04-24T12:57:31.442Z,100047.50
2023-04-24T13:00:00.492Z,100046.09
2023-04-24T13:02:31.556Z,100033.97
2023-04-24T13:04:59.991Z,100048.03
2023-04-24T13:07:28.164Z,100049.13
2023-04-24T13:09:58.434Z,100044.66
2023-04-24T13:12:27.579Z,100043.84
2023-04-24T13:14:55.666Z,100044.22
2023-04-24T13:17:24.140Z,100032.84
2023-04-24T13:19:53.060Z,100035.38
2023-04-24T13:22:20.997Z,100034.22
2023-04-24T13:24:50.405Z,100030.81
2023-04-24T13:27:20.021Z,100028.03
2023-04-24T13:29:48.053Z,100031.97
2023-04-24T13:32:16.137Z,100034.78
2023-04-24T13:34:44.254Z,100033.94
2023-04-24T13:37:12.241Z,100037.03
2023-04-24T13:39:40.194Z,100035.38
2023-04-24T13:42:08.211Z,100040.66
2023-04-24T13:44:37.947Z,100045.66
2023-04-24T13:47:06.754Z,100050.41
2023-04-24T13:49:34.649Z,100046.72
2023-04-24T13:52:02.592Z,100058.13
2023-04-24T13:54:30.655Z,100055.09
2023-04-24T13:57:00.245Z,100058.63
2023-04-24T13:59:28.221Z,100063.63
2023-04-24T14:01:57.801Z,100058.06
2023-04-24T14:04:26.721Z,100066.91
2023-04-24T14:06:54.888Z,100064.72
2023-04-24T14:09:22.787Z,100068.06
2023-04-24T14:11:50.683Z,100069.06
2023-04-24T14:14:18.671Z,100065.47
2023-04-24T14:16:46.581Z,100070.47
2023-04-24T14:19:15.900Z,100074.41
2023-04-24T14:21:43.800Z,100073.06
2023-04-24T14:24:11.818Z,100079.44
2023-04-24T14:26:39.828Z,100083.25
2023-04-24T14:29:14.930Z,100078.28
2023-04-24T14:31:43.584Z,100078.03
2023-04-24T14:34:11.671Z,100088.31
2023-04-24T14:36:41.558Z,100082.88
2023-04-24T14:39:09.531Z,100084.94
2023-04-24T14:41:38.262Z,100088.84
2023-04-24T14:44:06.729Z,100089.88
2023-04-24T14:46:34.957Z,100097.03
2023-04-24T14:49:03.092Z,100087.03
2023-04-24T14:51:31.577Z,100104.59
2023-04-24T14:54:01.036Z,100119.59
2023-04-24T14:56:29.221Z,100122.47
2023-04-24T14:58:57.618Z,100131.38
2023-04-24T15:01:26.415Z,100136.63
2023-04-24T15:03:54.915Z,100143.69
2023-04-24T15:06:23.279Z,100155.44
2023-04-24T15:08:51.267Z,100155.16
2023-04-24T15:11:21.260Z,100166.06
2023-04-24T15:13:49.404Z,100170.41
2023-04-24T15:16:17.608Z,100179.44
2023-04-24T15:18:46.026Z,100185.66
2023-04-24T15:21:14.253Z,100191.75
2023-04-24T15:23:42.239Z,100199.00
2023-04-24T15:26:10.166Z,100206.47
2023-04-24T15:28:39.481Z,100198.97
2023-04-24T15:31:07.419Z,100209.44
2023-04-24T15:33:35.361Z,100219.53
2023-04-24T15:36:03.397Z,100216.50
2023-04-24T15:38:31.330Z,100217.84
2023-04-24T15:40:59.310Z,100222.75
2023-04-24T15:43:27.328Z,100224.94
2023-04-24T15:45:56.629Z,100231.69
2023-04-24T15:48:24.641Z,100239.94
2023-04-24T15:50:52.529Z,100242.50
2023-04-24T15:53:22.435Z,100239.94
2023-04-24T15:55:51.483Z,100251.41
2023-04-24T15:58:20.366Z,100264.06
2023-04-24T16:00:48.456Z,100254.94
2023-04-24T16:03:17.969Z,100260.94
2023-04-24T16:05:45.946Z,100257.66
2023-04-24T16:08:15.423Z,100258.91
2023-04-24T16:10:44.241Z,100261.28
2023-04-24T16:13:12.240Z,100269.19
2023-04-24T16:15:41.147Z,100273.69
2023-04-24T16:18:09.239Z,100272.16
2023-04-24T16:20:38.670Z,100273.00
2023-04-24T16:23:06.570Z,100283.38
2023-04-24T16:25:34.490Z,100288.94
2023-04-24T16:28:02.420Z,100279.22
2023-04-24T16:30:30.512Z,100294.06
2023-04-24T16:32:58.528Z,100286.72
2023-04-24T16:35:26.468Z,100295.19
2023-04-24T16:37:55.797Z,100290.44
2023-04-24T16:40:23.697Z,100300.81
2023-04-24T16:42:52.793Z,100295.38
2023-04-24T16:45:20.858Z,100304.06
2023-04-24T16:47:48.886Z,100310.28
2023-04-24T16:50:16.854Z,100311.78
2023-04-24T16:52:44.819Z,100306.41
2023-04-24T16:55:14.079Z,100304.72
2023-04-24T16:57:41.994Z,100309.09
2023-04-24T17:00:11.213Z,100312.75
2023-04-24T17:02:39.274Z,100312.75
2023-04-24T17:05:08.121Z,100301.66
2023-04-24T17:07:36.242Z,100304.38
2023-04-24T17:10:04.783Z,100307.31
2023-04-24T17:12:34.168Z,100307.91
2023-04-24T17:15:02.139Z,100305.38
2023-04-24T17:17:30.094Z,100299.41
2023-04-24T17:19:59.870Z,100309.56
2023-04-24T17:22:29.486Z,100307.53
2023-04-24T17:24:57.390Z,100313.03
2023-04-24T17:27:25.322Z,100307.25
2023-04-24T17:29:54.698Z,100310.72
2023-04-24T17:32:22.686Z,100314.66
2023-04-24T17:34:50.599Z,100308.31
2023-04-24T17:37:20.331Z,100311.53
2023-04-24T17:39:48.239Z,100305.34
2023-04-24T17:42:16.190Z,100311.75
2023-04-24T17:44:44.111Z,100311.13
2023-04-24T17:47:13.627Z,100308.06
2023-04-24T17:49:41.592Z,100306.53
2023-04-24T17:52:11.726Z,100305.63
2023-04-24T17:54:39.688Z,100302.84
2023-04-24T17:57:07.595Z,100301.56
2023-04-24T17:59:35.541Z,100303.25
2023-04-24T18:02:03.593Z,100303.84
2023-04-24T18:04:33.320Z,100308.41
2023-04-24T18:07:01.318Z,100307.22
2023-04-24T18:09:29.562Z,100307.91
2023-04-24T18:11:57.939Z,100304.94
2023-04-24T18:14:28.408Z,100319.19
2023-04-24T18:16:58.181Z,100325.28
2023-04-24T18:19:26.228Z,100318.19
2023-04-24T18:21:55.474Z,100325.16
2023-04-24T18:24:24.310Z,100333.31
2023-04-24T18:26:52.274Z,100331.47
2023-04-24T18:29:21.178Z,100341.00
2023-04-24T18:31:49.585Z,100338.56
2023-04-24T18:34:17.650Z,100340.50
2023-04-24T18:36:45.623Z,100337.94
2023-04-24T18:39:15.091Z,100326.91
2023-04-24T18:41:43.048Z,100333.56
2023-04-24T18:44:11.699Z,100339.31
2023-04-24T18:46:41.497Z,100336.00
2023-04-24T18:49:09.557Z,100339.22
2023-04-24T18:51:52.470Z,100350.22
2023-04-24T18:54:22.858Z,100353.78
2023-04-24T18:56:51.653Z,100353.03
2023-04-24T18:59:19.909Z,100346.31
2023-04-24T19:01:49.837Z,100361.50
2023-04-24T19:04:20.810Z,100353.25
2023-04-24T19:06:48.907Z,100354.41
2023-04-24T19:09:16.870Z,100361.69
2023-04-24T19:11:46.251Z,100365.56
2023-04-24T19:14:14.489Z,100369.72
2023-04-24T19:16:42.524Z,100370.84
2023-04-24T19:19:13.381Z,100369.38
2023-04-24T19:21:41.399Z,100374.56
2023-04-24T19:24:10.829Z,100377.13
2023-04-24T19:26:38.781Z,100376.91
2023-04-24T19:29:08.131Z,100378.22
2023-04-24T19:31:36.037Z,100382.47
2023-04-24T19:34:03.966Z,100378.13
2023-04-24T19:36:32.404Z,100379.22
2023-04-24T19:39:28.183Z,100379.66
2023-04-24T19:41:57.163Z,100376.88
2023-04-24T19:44:26.496Z,100373.13
2023-04-24T19:46:54.581Z,100371.78
2023-04-24T19:49:22.615Z,100377.47
2023-04-24T19:51:50.550Z,100372.06
2023-04-24T19:54:20.209Z,100382.47
2023-04-24T19:56:48.279Z,100377.34
2023-04-24T19:59:16.208Z,100380.56
2023-04-24T20:01:45.703Z,100380.16
2023-04-24T20:04:13.891Z,100379.78
2023-04-24T20:06:42.018Z,100373.50
2023-04-24T20:09:10.427Z,100370.22
2023-04-24T20:11:38.316Z,100374.56
2023-04-24T20:14:06.362Z,100372.56
2023-04-24T20:16:34.331Z,100380.06
2023-04-24T20:19:03.893Z,100372.16
2023-04-24T20:21:32.004Z,100377.50
2023-04-24T20:23:59.944Z,100379.91
2023-04-24T20:26:27.879Z,100378.75
2023-04-24T20:28:55.812Z,100382.75
2023-04-24T20:31:23.813Z,100388.59
2023-04-24T20:33:51.817Z,100387.59
2023-04-24T20:36:21.107Z,100388.91
2023-04-24T20:38:51.800Z,100390.59
2023-04-24T20:41:19.735Z,100396.38
2023-04-24T20:43:47.760Z,100401.81
2023-04-24T20:46:15.846Z,100413.06
2023-04-24T20:48:43.777Z,100402.31
2023-04-24T20:51:11.810Z,100405.66
2023-04-24T20:53:41.081Z,100411.97
2023-04-24T20:56:11.432Z,100414.16
2023-04-24T20:58:39.874Z,100418.13
2023-04-24T21:01:08.015Z,100413.50
2023-04-24T21:03:36.055Z,100418.63
2023-04-24T21:06:04.218Z,100411.59
2023-04-24T21:08:32.112Z,100419.81
2023-04-24T21:11:01.453Z,100423.09
2023-04-24T21:13:29.410Z,100415.00
2023-04-24T21:15:57.465Z,100417.56
2023-04-24T21:18:26.213Z,100420.06
2023-04-24T21:20:54.516Z,100414.38
2023-04-24T21:23:22.446Z,100422.34
2023-04-24T21:25:50.345Z,100417.91
2023-04-24T21:28:20.066Z,100423.09
2023-04-24T21:30:48.074Z,100420.06
2023-04-24T21:33:15.977Z,100419.09
2023-04-24T21:35:44.017Z,100413.06
2023-04-24T21:38:11.906Z,100416.97
2023-04-24T21:40:39.871Z,100420.31
2023-04-24T21:43:07.816Z,100422.25
2023-04-24T21:45:37.070Z,100415.63
2023-04-24T21:48:05.284Z,100420.59
2023-04-24T21:50:33.248Z,100423.94
2023-04-24T21:53:01.152Z,100416.09
2023-04-24T21:55:29.133Z,100415.97
2023-04-24T21:57:57.293Z,100423.34
2023-04-24T22:00:25.514Z,100421.66
2023-04-24T22:02:54.953Z,100430.84
2023-04-24T22:05:23.005Z,100422.84
2023-04-24T22:07:51.045Z,100426.22
2023-04-24T22:10:19.224Z,100414.75
2023-04-24T22:12:47.134Z,100427.34
2023-04-24T22:15:15.131Z,100422.47
2023-04-24T22:17:43.646Z,100429.88
2023-04-24T22:20:13.904Z,100433.72
2023-04-24T22:22:41.828Z,100434.44
2023-04-24T22:25:10.522Z,100429.63
2023-04-24T22:27:38.457Z,100430.09
2023-04-24T22:30:09.133Z,100436.00
2023-04-24T22:32:37.424Z,100434.09
2023-04-24T22:35:05.847Z,100442.44
2023-04-24T22:37:35.170Z,100442.44
2023-04-24T22:40:03.650Z,100442.06
2023-04-24T22:42:31.616Z,100443.28
2023-04-24T22:44:59.561Z,100444.00
2023-04-24T22:47:27.598Z,100450.53
2023-04-24T22:49:57.717Z,100450.53
2023-04-24T22:52:26.259Z,100450.19
2023-04-24T22:54:55.543Z,100447.75
2023-04-24T22:57:23.448Z,100450.44
2023-04-24T22:59:51.373Z,100447.03
2023-04-24T23:02:19.406Z,100453.22
2023-04-24T23:04:48.395Z,100455.38
2023-04-24T23:07:16.788Z,100444.25
2023-04-24T23:09:44.715Z,100441.38
2023-04-24T23:12:13.978Z,100441.16
2023-04-24T23:14:41.866Z,100446.44
2023-04-24T23:17:09.793Z,100441.88
2023-04-24T23:19:37.701Z,100449.34
2023-04-24T23:22:05.631Z,100454.88
2023-04-24T23:24:33.565Z,100452.72
2023-04-24T23:27:01.788Z,100455.50
2023-04-24T23:29:31.070Z,100452.72
2023-04-24T23:31:59.011Z,100465.28
2023-04-24T23:34:26.930Z,100468.19
2023-04-24T23:36:54.890Z,100467.59
2023-04-24T23:39:22.936Z,100463.63
2023-04-24T23:41:53.602Z,100477.13
2023-04-24T23:44:21.536Z,100471.09
2023-04-24T23:46:50.789Z,100474.00
2023-04-24T23:49:18.690Z,100466.75
2023-04-24T23:51:46.584Z,100473.13
2023-04-24T23:54:14.505Z,100474.22
2023-04-24T23:56:42.608Z,100468.44
2023-04-24T23:59:10.500Z,100469.13
